Vicksburg, MS

12:58 AM CDT on August 04, 2015 (GMT -0500)
Savannah Hills | | Change Station
CLOSE
Current Station
Personal Weather Station
Location: Vicksburg, MS
Elevation: 250 ft
Nearby Weather Stations
Active Advisory: Flood Warning

Elev 250 ft 32.33 °N, 90.85 °W | Updated 1 minute ago

Clear
Clear
79.0 °F
Feels Like 82 °F
N
0.0
Wind Variable Wind from ESE

Today
High -- | Low -- °F
--% Chance of Precip.
Yesterday
High -- | Low -- °F
Precip. -- in
6:20 AM 7:58 PM
Waning Gibbous, 80% visible
Pressure 29.92 in
Visibility 10.0 miles
Clouds Clear
Heat Index 82 °F
Dew Point 69 °F
Humidity 72%
Rainfall 0.00 in
Snow Depth Not available.
UV 0 out of 12
Pollen 4.00 out of 12
Air Quality Not available.
Flu Activity Not available.
METAR KVKS 040535Z AUTO 00000KT 10SM CLR 24/22 A2992 RMK A01

More Conditions Fewer Conditions

Pressure 29.92 in
Visibility 10.0 miles
Clouds Clear
Heat Index 82 °F
Dew Point 69 °F
Humidity 72%
Rainfall 0.00 in
Snow Depth Not available.
UV 0 out of 12
Pollen 4.00 out of 12
Air Quality Not available.
Flu Activity Not available.
METAR KVKS 040535Z AUTO 00000KT 10SM CLR 24/22 A2992 RMK A01

More Conditions Fewer Conditions

10-Day Weather Forecast

×

Almanac

Astronomy

Aug. 04, 2015 Rise Set
Actual Time
Civil Twilight
Nautical Twilight
Astronomical Twilight
Moon
Length of Visible Light
Length of Day
Tomorrow will be .
, % of the Moon is Illuminated

Today's Extremes

State Highs State Lows

Community

WunderPhotos

Upload Photos

1,843,870 photos uploaded!

WunderBlogs® & News

Nearby

Air Quality

  Air Quality AQ Index Pollutant
Not available.

Snow Depth

Station Depth Elevation

Earthquake Activity

City Distance Mag. Time & Date
Minimum magnitude displayed is 2.5.

Coastal Water Temperatures

Place Temperature

Stations

Nearby Weather Stations

Station Location Temp. Windchill Dew Point Humidity Wind Precip. Elev Updated Type
                   
Flood Warning
Statement as of 8:26 PM CDT on August 03, 2015


The Flood Warning continues for
the Mississippi River at Vicksburg
* until Tuesday evening.
* At 8:00 PM Monday the stage was 44.0 feet and falling.
* Minor flooding is occurring and minor flooding is forecast.
* Flood stage is 43 feet.
* Forecast... the river will continue falling and will fall below
flood stage tomorrow.
* Impact... at 44.0 feet... Ford and Kings subdivision at Pittman Road
and mary's alley begins to flood.
* Impact... at 43.5 feet... Long Lake subdivision is completely flooded.
Vicksburg floodwall gates at train depot and the lumber yard gate 8
are closed.
* Impact... at 43.0 feet... Jackson Lane in north Vicksburg begins to
flood.


              Flood observed forecast 7 am crest
location stg stg day time Tue Wed Thu crest time date

Lower Mississippi River
Vicksburg 43 44.0 Mon 8 PM 43.0 41.8 40.4 falling




Lat... Lon 3193 9129 3227 9105 3277 9123 3278 9101
      3226 9086 3187 9114